sensor_id;sensor_type;location;lat;lon;timestamp;temperature;humidity
36548;DHT22;22551;52.206;4.856;2023-04-03T00:00:16;4.80;99.90
36548;DHT22;22551;52.206;4.856;2023-04-03T00:05:19;4.80;99.90
36548;DHT22;22551;52.206;4.856;2023-04-03T00:10:25;4.80;99.90
36548;DHT22;22551;52.206;4.856;2023-04-03T00:15:28;4.70;99.90
36548;DHT22;22551;52.206;4.856;2023-04-03T00:20:31;4.70;99.90
36548;DHT22;22551;52.206;4.856;2023-04-03T00:25:36;4.70;99.90
36548;DHT22;22551;52.206;4.856;2023-04-03T00:30:38;4.60;99.90
36548;DHT22;22551;52.206;4.856;2023-04-03T00:35:40;4.70;99.90
36548;DHT22;22551;52.206;4.856;2023-04-03T00:40:46;4.60;99.90
36548;DHT22;22551;52.206;4.856;2023-04-03T00:45:51;4.60;99.90
36548;DHT22;22551;52.206;4.856;2023-04-03T00:50:54;4.50;99.90
36548;DHT22;22551;52.206;4.856;2023-04-03T00:55:58;4.50;99.90
36548;DHT22;22551;52.206;4.856;2023-04-03T01:01:06;4.50;99.90
36548;DHT22;22551;52.206;4.856;2023-04-03T01:06:10;4.30;99.90
36548;DHT22;22551;52.206;4.856;2023-04-03T01:11:14;4.40;99.90
36548;DHT22;22551;52.206;4.856;2023-04-03T01:16:17;4.40;99.90
36548;DHT22;22551;52.206;4.856;2023-04-03T01:21:53;4.30;99.90
36548;DHT22;22551;52.206;4.856;2023-04-03T01:27:06;4.20;99.90
36548;DHT22;22551;52.206;4.856;2023-04-03T01:32:11;4.10;99.90
36548;DHT22;22551;52.206;4.856;2023-04-03T01:37:13;4.10;99.90
36548;DHT22;22551;52.206;4.856;2023-04-03T01:42:15;4.00;99.90
36548;DHT22;22551;52.206;4.856;2023-04-03T01:47:19;4.00;99.90
36548;DHT22;22551;52.206;4.856;2023-04-03T01:52:21;3.90;99.90
36548;DHT22;22551;52.206;4.856;2023-04-03T01:57:24;3.90;99.90
36548;DHT22;22551;52.206;4.856;2023-04-03T02:02:28;3.80;99.90
36548;DHT22;22551;52.206;4.856;2023-04-03T02:07:30;3.80;99.90
36548;DHT22;22551;52.206;4.856;2023-04-03T02:12:33;3.80;99.90
36548;DHT22;22551;52.206;4.856;2023-04-03T02:17:36;3.70;99.90
36548;DHT22;22551;52.206;4.856;2023-04-03T02:22:39;3.60;99.90
36548;DHT22;22551;52.206;4.856;2023-04-03T02:27:41;3.60;99.90
36548;DHT22;22551;52.206;4.856;2023-04-03T02:32:45;3.50;99.90
36548;DHT22;22551;52.206;4.856;2023-04-03T02:37:47;3.50;99.90
36548;DHT22;22551;52.206;4.856;2023-04-03T02:42:49;3.40;99.90
36548;DHT22;22551;52.206;4.856;2023-04-03T02:47:53;3.40;99.90
36548;DHT22;22551;52.206;4.856;2023-04-03T02:52:56;3.30;99.90
36548;DHT22;22551;52.206;4.856;2023-04-03T02:57:58;3.30;99.90
36548;DHT22;22551;52.206;4.856;2023-04-03T03:03:02;3.20;99.90
36548;DHT22;22551;52.206;4.856;2023-04-03T03:08:04;3.20;99.90
36548;DHT22;22551;52.206;4.856;2023-04-03T03:13:06;3.20;99.90
36548;DHT22;22551;52.206;4.856;2023-04-03T03:18:10;3.20;99.90
36548;DHT22;22551;52.206;4.856;2023-04-03T03:23:12;3.20;99.90
36548;DHT22;22551;52.206;4.856;2023-04-03T03:28:15;3.10;99.90
36548;DHT22;22551;52.206;4.856;2023-04-03T03:33:18;3.10;99.90
36548;DHT22;22551;52.206;4.856;2023-04-03T03:38:22;3.10;99.90
36548;DHT22;22551;52.206;4.856;2023-04-03T03:43:25;3.00;99.90
36548;DHT22;22551;52.206;4.856;2023-04-03T03:48:29;3.00;99.90
36548;DHT22;22551;52.206;4.856;2023-04-03T03:53:31;3.00;99.90
36548;DHT22;22551;52.206;4.856;2023-04-03T03:58:33;3.00;99.90
36548;DHT22;22551;52.206;4.856;2023-04-03T04:03:37;2.90;99.90
36548;DHT22;22551;52.206;4.856;2023-04-03T04:08:40;2.90;99.90
36548;DHT22;22551;52.206;4.856;2023-04-03T04:13:42;2.80;99.90
36548;DHT22;22551;52.206;4.856;2023-04-03T04:18:46;2.80;99.90
36548;DHT22;22551;52.206;4.856;2023-04-03T04:23:48;2.70;99.90
36548;DHT22;22551;52.206;4.856;2023-04-03T04:28:51;2.70;99.90
36548;DHT22;22551;52.206;4.856;2023-04-03T04:33:54;2.60;99.90
36548;DHT22;22551;52.206;4.856;2023-04-03T04:38:59;2.70;99.90
36548;DHT22;22551;52.206;4.856;2023-04-03T04:44:01;2.60;99.90
36548;DHT22;22551;52.206;4.856;2023-04-03T04:49:06;2.60;99.90
36548;DHT22;22551;52.206;4.856;2023-04-03T04:54:09;2.60;99.90
36548;DHT22;22551;52.206;4.856;2023-04-03T04:59:12;2.60;99.90
36548;DHT22;22551;52.206;4.856;2023-04-03T05:04:16;2.50;99.90
36548;DHT22;22551;52.206;4.856;2023-04-03T05:09:19;2.50;99.90
36548;DHT22;22551;52.206;4.856;2023-04-03T05:14:21;2.50;99.90
36548;DHT22;22551;52.206;4.856;2023-04-03T05:19:25;2.60;99.90
36548;DHT22;22551;52.206;4.856;2023-04-03T05:24:27;2.50;99.90
36548;DHT22;22551;52.206;4.856;2023-04-03T05:29:30;2.60;99.90
36548;DHT22;22551;52.206;4.856;2023-04-03T05:34:36;2.50;99.90
36548;DHT22;22551;52.206;4.856;2023-04-03T05:39:38;2.50;99.90
36548;DHT22;22551;52.206;4.856;2023-04-03T05:44:41;2.50;99.90
36548;DHT22;22551;52.206;4.856;2023-04-03T05:49:46;2.50;99.90
36548;DHT22;22551;52.206;4.856;2023-04-03T05:54:49;2.50;99.90
36548;DHT22;22551;52.206;4.856;2023-04-03T05:59:53;2.60;99.90
36548;DHT22;22551;52.206;4.856;2023-04-03T06:04:57;2.60;99.90
36548;DHT22;22551;52.206;4.856;2023-04-03T06:09:59;2.70;99.90
36548;DHT22;22551;52.206;4.856;2023-04-03T06:15:02;2.80;99.90
36548;DHT22;22551;52.206;4.856;2023-04-03T06:20:06;2.80;99.90
36548;DHT22;22551;52.206;4.856;2023-04-03T06:25:09;2.80;99.90
36548;DHT22;22551;52.206;4.856;2023-04-03T06:30:13;2.90;99.90
36548;DHT22;22551;52.206;4.856;2023-04-03T06:35:17;3.00;99.90
36548;DHT22;22551;52.206;4.856;2023-04-03T06:40:22;3.10;99.90
36548;DHT22;22551;52.206;4.856;2023-04-03T06:45:25;3.10;99.90
36548;DHT22;22551;52.206;4.856;2023-04-03T06:50:29;3.20;99.90
36548;DHT22;22551;52.206;4.856;2023-04-03T06:55:31;3.30;99.90
36548;DHT22;22551;52.206;4.856;2023-04-03T07:00:34;3.40;99.90
36548;DHT22;22551;52.206;4.856;2023-04-03T07:05:37;3.50;99.90
36548;DHT22;22551;52.206;4.856;2023-04-03T07:10:39;3.70;99.90
36548;DHT22;22551;52.206;4.856;2023-04-03T07:15:43;3.80;99.90
36548;DHT22;22551;52.206;4.856;2023-04-03T07:20:47;3.70;99.90
36548;DHT22;22551;52.206;4.856;2023-04-03T07:25:50;3.90;99.90
36548;DHT22;22551;52.206;4.856;2023-04-03T07:30:58;4.00;99.90
36548;DHT22;22551;52.206;4.856;2023-04-03T07:36:03;4.00;99.90
36548;DHT22;22551;52.206;4.856;2023-04-03T07:41:11;4.20;99.90
36548;DHT22;22551;52.206;4.856;2023-04-03T07:46:15;4.20;99.90
36548;DHT22;22551;52.206;4.856;2023-04-03T07:51:20;4.30;99.90
36548;DHT22;22551;52.206;4.856;2023-04-03T07:56:23;4.50;99.90
36548;DHT22;22551;52.206;4.856;2023-04-03T08:01:25;4.60;99.90
36548;DHT22;22551;52.206;4.856;2023-04-03T08:06:31;4.70;99.90
36548;DHT22;22551;52.206;4.856;2023-04-03T08:11:35;4.70;99.90
36548;DHT22;22551;52.206;4.856;2023-04-03T08:16:38;4.80;99.90
36548;DHT22;22551;52.206;4.856;2023-04-03T08:21:41;4.90;99.90
36548;DHT22;22551;52.206;4.856;2023-04-03T08:26:44;4.90;99.90
36548;DHT22;22551;52.206;4.856;2023-04-03T08:31:46;5.10;99.90
36548;DHT22;22551;52.206;4.856;2023-04-03T08:36:51;5.40;99.90
36548;DHT22;22551;52.206;4.856;2023-04-03T08:41:55;5.60;99.90
36548;DHT22;22551;52.206;4.856;2023-04-03T08:47:11;5.70;99.90
36548;DHT22;22551;52.206;4.856;2023-04-03T08:52:32;6.00;99.90
36548;DHT22;22551;52.206;4.856;2023-04-03T08:57:40;6.20;99.90
36548;DHT22;22551;52.206;4.856;2023-04-03T09:02:45;6.50;99.90
36548;DHT22;22551;52.206;4.856;2023-04-03T09:07:55;6.60;99.90
36548;DHT22;22551;52.206;4.856;2023-04-03T09:13:05;7.00;99.90
36548;DHT22;22551;52.206;4.856;2023-04-03T09:18:15;7.40;99.90
36548;DHT22;22551;52.206;4.856;2023-04-03T09:23:26;7.40;99.90
36548;DHT22;22551;52.206;4.856;2023-04-03T09:28:34;7.90;99.90
36548;DHT22;22551;52.206;4.856;2023-04-03T09:33:40;8.30;99.90
36548;DHT22;22551;52.206;4.856;2023-04-03T09:38:43;8.00;99.90
36548;DHT22;22551;52.206;4.856;2023-04-03T09:43:53;8.40;99.90
36548;DHT22;22551;52.206;4.856;2023-04-03T09:48:58;9.10;99.90
36548;DHT22;22551;52.206;4.856;2023-04-03T09:54:02;8.90;99.80
36548;DHT22;22551;52.206;4.856;2023-04-03T09:59:46;9.40;99.90
36548;DHT22;22551;52.206;4.856;2023-04-03T10:04:49;9.90;99.90
36548;DHT22;22551;52.206;4.856;2023-04-03T10:09:56;10.40;99.50
36548;DHT22;22551;52.206;4.856;2023-04-03T10:15:00;10.50;96.60
36548;DHT22;22551;52.206;4.856;2023-04-03T10:20:10;10.40;96.50
36548;DHT22;22551;52.206;4.856;2023-04-03T10:25:31;10.50;94.20
36548;DHT22;22551;52.206;4.856;2023-04-03T10:30:42;10.10;95.30
36548;DHT22;22551;52.206;4.856;2023-04-03T10:35:58;10.20;93.10
36548;DHT22;22551;52.206;4.856;2023-04-03T10:41:10;10.30;93.90
36548;DHT22;22551;52.206;4.856;2023-04-03T10:46:22;10.80;93.40
36548;DHT22;22551;52.206;4.856;2023-04-03T10:51:32;10.50;91.00
36548;DHT22;22551;52.206;4.856;2023-04-03T10:56:42;11.00;90.00
36548;DHT22;22551;52.206;4.856;2023-04-03T11:01:49;11.20;89.50
36548;DHT22;22551;52.206;4.856;2023-04-03T11:06:58;11.20;86.30
36548;DHT22;22551;52.206;4.856;2023-04-03T11:12:09;11.70;89.40
36548;DHT22;22551;52.206;4.856;2023-04-03T11:17:22;11.80;90.20
36548;DHT22;22551;52.206;4.856;2023-04-03T11:22:32;11.70;88.60
36548;DHT22;22551;52.206;4.856;2023-04-03T11:27:42;12.00;90.50
36548;DHT22;22551;52.206;4.856;2023-04-03T11:38:22;11.60;84.40
36548;DHT22;22551;52.206;4.856;2023-04-03T11:43:29;11.70;86.20
36548;DHT22;22551;52.206;4.856;2023-04-03T11:48:45;12.10;89.10
36548;DHT22;22551;52.206;4.856;2023-04-03T11:53:50;12.50;88.20
36548;DHT22;22551;52.206;4.856;2023-04-03T11:59:21;12.30;83.50
36548;DHT22;22551;52.206;4.856;2023-04-03T12:04:26;12.50;86.50
36548;DHT22;22551;52.206;4.856;2023-04-03T12:09:52;12.40;82.30
36548;DHT22;22551;52.206;4.856;2023-04-03T12:15:41;12.40;88.70
36548;DHT22;22551;52.206;4.856;2023-04-03T12:20:54;12.70;81.10
36548;DHT22;22551;52.206;4.856;2023-04-03T12:26:05;12.40;82.70
36548;DHT22;22551;52.206;4.856;2023-04-03T12:31:25;12.50;82.70
36548;DHT22;22551;52.206;4.856;2023-04-03T12:36:44;12.50;82.60
36548;DHT22;22551;52.206;4.856;2023-04-03T12:41:57;12.80;84.20
36548;DHT22;22551;52.206;4.856;2023-04-03T12:47:22;12.70;85.40
36548;DHT22;22551;52.206;4.856;2023-04-03T12:52:33;12.40;85.50
36548;DHT22;22551;52.206;4.856;2023-04-03T12:57:40;12.80;88.10
36548;DHT22;22551;52.206;4.856;2023-04-03T13:02:44;13.40;86.70
36548;DHT22;22551;52.206;4.856;2023-04-03T13:07:49;12.70;86.00
36548;DHT22;22551;52.206;4.856;2023-04-03T13:12:56;12.80;81.80
36548;DHT22;22551;52.206;4.856;2023-04-03T13:18:01;12.20;86.80
36548;DHT22;22551;52.206;4.856;2023-04-03T13:23:05;12.40;83.80
36548;DHT22;22551;52.206;4.856;2023-04-03T13:28:13;12.90;82.40
36548;DHT22;22551;52.206;4.856;2023-04-03T13:33:23;12.60;85.00
36548;DHT22;22551;52.206;4.856;2023-04-03T13:38:29;11.90;84.60
36548;DHT22;22551;52.206;4.856;2023-04-03T13:43:36;12.30;81.40
36548;DHT22;22551;52.206;4.856;2023-04-03T13:48:42;12.30;83.90
36548;DHT22;22551;52.206;4.856;2023-04-03T13:53:47;12.70;84.30
36548;DHT22;22551;52.206;4.856;2023-04-03T13:59:02;12.60;83.80
36548;DHT22;22551;52.206;4.856;2023-04-03T14:04:23;12.50;82.20
36548;DHT22;22551;52.206;4.856;2023-04-03T14:09:27;11.90;81.60
36548;DHT22;22551;52.206;4.856;2023-04-03T14:14:32;11.80;85.90
36548;DHT22;22551;52.206;4.856;2023-04-03T14:19:37;11.90;87.10
36548;DHT22;22551;52.206;4.856;2023-04-03T14:24:39;11.70;82.00
36548;DHT22;22551;52.206;4.856;2023-04-03T14:29:42;11.80;84.80
36548;DHT22;22551;52.206;4.856;2023-04-03T14:34:45;12.00;83.20
36548;DHT22;22551;52.206;4.856;2023-04-03T14:39:49;11.90;83.10
36548;DHT22;22551;52.206;4.856;2023-04-03T14:44:53;11.90;83.80
36548;DHT22;22551;52.206;4.856;2023-04-03T14:49:58;11.60;86.10
36548;DHT22;22551;52.206;4.856;2023-04-03T14:55:03;11.80;82.80
36548;DHT22;22551;52.206;4.856;2023-04-03T15:00:17;11.40;84.00
36548;DHT22;22551;52.206;4.856;2023-04-03T15:05:23;11.50;83.20
36548;DHT22;22551;52.206;4.856;2023-04-03T15:10:27;11.70;84.30
36548;DHT22;22551;52.206;4.856;2023-04-03T15:15:33;11.70;83.80
36548;DHT22;22551;52.206;4.856;2023-04-03T15:20:38;11.40;86.10
36548;DHT22;22551;52.206;4.856;2023-04-03T15:25:42;11.40;85.50
36548;DHT22;22551;52.206;4.856;2023-04-03T15:30:44;11.60;87.70
36548;DHT22;22551;52.206;4.856;2023-04-03T15:35:48;11.50;87.10
36548;DHT22;22551;52.206;4.856;2023-04-03T15:40:50;11.50;87.10
36548;DHT22;22551;52.206;4.856;2023-04-03T15:45:57;11.50;87.90
36548;DHT22;22551;52.206;4.856;2023-04-03T15:51:01;11.60;87.30
36548;DHT22;22551;52.206;4.856;2023-04-03T15:56:04;11.20;88.00
36548;DHT22;22551;52.206;4.856;2023-04-03T16:01:09;11.00;86.90
36548;DHT22;22551;52.206;4.856;2023-04-03T16:06:15;10.90;87.10
36548;DHT22;22551;52.206;4.856;2023-04-03T16:11:20;10.80;91.30
36548;DHT22;22551;52.206;4.856;2023-04-03T16:16:23;10.90;86.70
36548;DHT22;22551;52.206;4.856;2023-04-03T16:21:29;10.70;90.20
36548;DHT22;22551;52.206;4.856;2023-04-03T16:26:32;10.70;90.30
36548;DHT22;22551;52.206;4.856;2023-04-03T16:31:34;10.70;90.70
36548;DHT22;22551;52.206;4.856;2023-04-03T16:36:42;10.40;91.30
36548;DHT22;22551;52.206;4.856;2023-04-03T16:41:45;10.60;91.60
36548;DHT22;22551;52.206;4.856;2023-04-03T16:46:47;10.60;90.80
36548;DHT22;22551;52.206;4.856;2023-04-03T16:51:51;10.20;91.10
36548;DHT22;22551;52.206;4.856;2023-04-03T16:56:54;9.90;91.60
36548;DHT22;22551;52.206;4.856;2023-04-03T17:01:56;9.90;92.50
36548;DHT22;22551;52.206;4.856;2023-04-03T17:07:00;9.70;92.40
36548;DHT22;22551;52.206;4.856;2023-04-03T17:12:06;9.40;92.50
36548;DHT22;22551;52.206;4.856;2023-04-03T17:17:09;9.30;92.90
36548;DHT22;22551;52.206;4.856;2023-04-03T17:22:13;9.20;93.10
36548;DHT22;22551;52.206;4.856;2023-04-03T17:27:16;9.10;94.40
36548;DHT22;22551;52.206;4.856;2023-04-03T17:32:18;9.00;94.80
36548;DHT22;22551;52.206;4.856;2023-04-03T17:37:23;8.90;95.10
36548;DHT22;22551;52.206;4.856;2023-04-03T17:42:26;8.70;95.10
36548;DHT22;22551;52.206;4.856;2023-04-03T17:47:30;8.60;94.90
36548;DHT22;22551;52.206;4.856;2023-04-03T17:52:34;8.50;95.60
36548;DHT22;22551;52.206;4.856;2023-04-03T17:57:36;8.40;96.10
36548;DHT22;22551;52.206;4.856;2023-04-03T18:02:39;8.20;96.00
36548;DHT22;22551;52.206;4.856;2023-04-03T18:07:43;8.20;96.90
36548;DHT22;22551;52.206;4.856;2023-04-03T18:12:45;8.10;96.80
36548;DHT22;22551;52.206;4.856;2023-04-03T18:17:48;8.00;97.00
36548;DHT22;22551;52.206;4.856;2023-04-03T18:22:58;7.90;98.20
36548;DHT22;22551;52.206;4.856;2023-04-03T18:28:00;7.80;97.80
36548;DHT22;22551;52.206;4.856;2023-04-03T18:33:05;7.70;98.50
36548;DHT22;22551;52.206;4.856;2023-04-03T18:38:09;7.60;99.10
36548;DHT22;22551;52.206;4.856;2023-04-03T18:43:13;7.50;99.50
36548;DHT22;22551;52.206;4.856;2023-04-03T18:48:16;7.30;99.90
36548;DHT22;22551;52.206;4.856;2023-04-03T18:53:19;7.20;99.90
36548;DHT22;22551;52.206;4.856;2023-04-03T18:58:21;7.20;99.90
36548;DHT22;22551;52.206;4.856;2023-04-03T19:03:24;7.00;99.90
36548;DHT22;22551;52.206;4.856;2023-04-03T19:08:30;7.00;99.90
36548;DHT22;22551;52.206;4.856;2023-04-03T19:13:32;6.90;99.90
36548;DHT22;22551;52.206;4.856;2023-04-03T19:18:34;6.90;99.90
36548;DHT22;22551;52.206;4.856;2023-04-03T19:23:38;6.80;99.90
36548;DHT22;22551;52.206;4.856;2023-04-03T19:28:42;6.70;99.90
36548;DHT22;22551;52.206;4.856;2023-04-03T19:33:46;6.60;99.90
36548;DHT22;22551;52.206;4.856;2023-04-03T19:38:50;6.50;99.90
36548;DHT22;22551;52.206;4.856;2023-04-03T19:43:54;6.40;99.90
36548;DHT22;22551;52.206;4.856;2023-04-03T19:48:57;6.40;99.90
36548;DHT22;22551;52.206;4.856;2023-04-03T19:54:01;6.30;99.90
36548;DHT22;22551;52.206;4.856;2023-04-03T19:59:05;6.30;99.90
36548;DHT22;22551;52.206;4.856;2023-04-03T20:04:07;6.20;99.90
36548;DHT22;22551;52.206;4.856;2023-04-03T20:09:11;6.20;99.90
36548;DHT22;22551;52.206;4.856;2023-04-03T20:14:13;6.20;99.90
36548;DHT22;22551;52.206;4.856;2023-04-03T20:19:16;6.10;99.90
36548;DHT22;22551;52.206;4.856;2023-04-03T20:24:20;5.90;99.90
36548;DHT22;22551;52.206;4.856;2023-04-03T20:29:22;5.80;99.90
36548;DHT22;22551;52.206;4.856;2023-04-03T20:34:25;5.70;99.90
36548;DHT22;22551;52.206;4.856;2023-04-03T20:39:28;5.60;99.90
36548;DHT22;22551;52.206;4.856;2023-04-03T20:44:31;5.50;99.90
36548;DHT22;22551;52.206;4.856;2023-04-03T20:49:33;5.40;99.90
36548;DHT22;22551;52.206;4.856;2023-04-03T20:54:37;5.40;99.90
36548;DHT22;22551;52.206;4.856;2023-04-03T20:59:39;5.40;99.90
36548;DHT22;22551;52.206;4.856;2023-04-03T21:04:45;5.20;99.90
36548;DHT22;22551;52.206;4.856;2023-04-03T21:20:56;5.00;99.90
36548;DHT22;22551;52.206;4.856;2023-04-03T21:25:59;4.90;99.90
36548;DHT22;22551;52.206;4.856;2023-04-03T21:31:01;4.90;99.90
36548;DHT22;22551;52.206;4.856;2023-04-03T21:36:05;4.90;99.90
36548;DHT22;22551;52.206;4.856;2023-04-03T21:41:08;4.90;99.90
36548;DHT22;22551;52.206;4.856;2023-04-03T21:46:10;4.90;99.90
36548;DHT22;22551;52.206;4.856;2023-04-03T21:51:14;5.00;99.90
36548;DHT22;22551;52.206;4.856;2023-04-03T21:56:17;5.00;99.90
36548;DHT22;22551;52.206;4.856;2023-04-03T22:01:19;4.90;99.90
36548;DHT22;22551;52.206;4.856;2023-04-03T22:06:24;4.90;99.90
36548;DHT22;22551;52.206;4.856;2023-04-03T22:11:26;4.90;99.90
36548;DHT22;22551;52.206;4.856;2023-04-03T22:16:29;4.80;99.90
36548;DHT22;22551;52.206;4.856;2023-04-03T22:21:32;4.70;99.90
36548;DHT22;22551;52.206;4.856;2023-04-03T22:26:35;4.60;99.90
36548;DHT22;22551;52.206;4.856;2023-04-03T22:31:39;4.50;99.90
36548;DHT22;22551;52.206;4.856;2023-04-03T22:36:45;4.50;99.90
36548;DHT22;22551;52.206;4.856;2023-04-03T22:41:47;4.40;99.90
36548;DHT22;22551;52.206;4.856;2023-04-03T22:46:49;4.30;99.90
36548;DHT22;22551;52.206;4.856;2023-04-03T22:51:54;4.20;99.90
36548;DHT22;22551;52.206;4.856;2023-04-03T22:56:56;4.20;99.90
36548;DHT22;22551;52.206;4.856;2023-04-03T23:01:58;4.10;99.90
36548;DHT22;22551;52.206;4.856;2023-04-03T23:07:02;4.10;99.90
36548;DHT22;22551;52.206;4.856;2023-04-03T23:12:05;4.10;99.90
36548;DHT22;22551;52.206;4.856;2023-04-03T23:17:09;4.10;99.90
36548;DHT22;22551;52.206;4.856;2023-04-03T23:22:13;4.00;99.90
36548;DHT22;22551;52.206;4.856;2023-04-03T23:27:16;4.00;99.90
36548;DHT22;22551;52.206;4.856;2023-04-03T23:32:18;3.90;99.90
36548;DHT22;22551;52.206;4.856;2023-04-03T23:37:21;3.80;99.90
36548;DHT22;22551;52.206;4.856;2023-04-03T23:42:24;3.70;99.90
36548;DHT22;22551;52.206;4.856;2023-04-03T23:47:26;3.70;99.90
36548;DHT22;22551;52.206;4.856;2023-04-03T23:52:30;3.60;99.90
36548;DHT22;22551;52.206;4.856;2023-04-03T23:57:33;3.60;99.90
